createdAt,value
2023-04-09T00:01:18.949Z,26.08
2023-04-09T00:03:45.494Z,29.35
2023-04-09T00:06:12.706Z,27.85
2023-04-09T00:08:39.050Z,28.10
2023-04-09T00:11:05.794Z,28.88
2023-04-09T00:13:39.024Z,27.40
2023-04-09T00:16:06.367Z,27.10
2023-04-09T00:18:32.807Z,27.60
2023-04-09T00:20:59.179Z,26.98
2023-04-09T00:23:25.525Z,27.42
2023-04-09T00:25:51.939Z,24.90
2023-04-09T00:28:18.277Z,27.00
2023-04-09T00:30:44.639Z,25.20
2023-04-09T00:33:11.279Z,25.23
2023-04-09T00:35:37.656Z,25.90
2023-04-09T00:38:04.087Z,25.50
2023-04-09T00:40:30.827Z,26.30
2023-04-09T00:42:57.170Z,26.27
2023-04-09T00:45:23.664Z,24.75
2023-04-09T00:47:50.457Z,25.00
2023-04-09T00:50:16.971Z,27.25
2023-04-09T00:52:43.615Z,25.77
2023-04-09T00:55:10.474Z,25.88
2023-04-09T00:57:37.388Z,24.58
2023-04-09T01:00:04.670Z,25.33
2023-04-09T01:02:31.313Z,25.95
2023-04-09T01:04:58.156Z,25.95
2023-04-09T01:07:48.657Z,26.77
2023-04-09T01:10:28.172Z,26.42
2023-04-09T01:13:03.166Z,27.95
2023-04-09T01:15:37.714Z,27.42
2023-04-09T01:18:12.075Z,27.08
2023-04-09T01:20:40.592Z,27.55
2023-04-09T01:23:09.919Z,27.33
2023-04-09T01:26:04.289Z,28.67
2023-04-09T01:28:36.824Z,26.42
2023-04-09T01:31:09.215Z,25.73
2023-04-09T01:33:37.675Z,24.75
2023-04-09T01:36:05.171Z,26.80
2023-04-09T01:38:36.378Z,27.23
2023-04-09T01:41:04.026Z,26.85
2023-04-09T01:43:31.940Z,27.15
2023-04-09T01:46:00.840Z,26.65
2023-04-09T01:48:27.654Z,26.45
2023-04-09T01:50:54.184Z,25.80
2023-04-09T01:53:21.762Z,26.88
2023-04-09T01:55:48.091Z,25.85
2023-04-09T01:58:14.461Z,26.08
2023-04-09T02:00:46.762Z,25.25
2023-04-09T02:03:22.296Z,26.25
2023-04-09T02:06:04.958Z,26.33
2023-04-09T02:08:34.765Z,26.13
2023-04-09T02:11:04.902Z,27.60
2023-04-09T02:13:34.585Z,25.60
2023-04-09T02:16:01.986Z,25.05
2023-04-09T02:18:30.156Z,27.00
2023-04-09T02:20:57.707Z,26.05
2023-04-09T02:23:24.618Z,26.60
2023-04-09T02:25:52.534Z,28.10
2023-04-09T02:28:19.095Z,27.27
2023-04-09T02:30:45.513Z,26.85
2023-04-09T02:33:11.908Z,25.38
2023-04-09T02:35:38.317Z,26.38
2023-04-09T02:38:04.899Z,27.92
2023-04-09T02:40:31.291Z,26.80
2023-04-09T02:42:57.817Z,25.90
2023-04-09T02:45:24.136Z,25.80
2023-04-09T02:47:50.600Z,25.85
2023-04-09T02:50:17.130Z,27.50
2023-04-09T02:52:46.408Z,26.95
2023-04-09T02:55:13.348Z,26.88
2023-04-09T02:57:40.768Z,28.35
2023-04-09T03:00:07.952Z,26.27
2023-04-09T03:02:34.539Z,26.67
2023-04-09T03:05:00.947Z,27.17
2023-04-09T03:07:27.405Z,27.17
2023-04-09T03:09:53.747Z,26.25
2023-04-09T03:12:20.116Z,24.63
2023-04-09T03:14:46.496Z,27.27
2023-04-09T03:17:12.796Z,27.08
2023-04-09T03:19:39.101Z,26.65
2023-04-09T03:22:05.727Z,27.33
2023-04-09T03:24:33.042Z,26.25
2023-04-09T03:26:59.377Z,26.38
2023-04-09T03:29:25.939Z,26.30
2023-04-09T03:31:52.394Z,28.73
2023-04-09T03:34:18.811Z,29.45
2023-04-09T03:36:45.367Z,29.17
2023-04-09T03:39:11.750Z,27.45
2023-04-09T03:41:38.203Z,27.58
2023-04-09T03:44:04.670Z,28.08
2023-04-09T03:46:31.180Z,27.63
2023-04-09T03:48:57.553Z,28.25
2023-04-09T03:51:23.902Z,28.83
2023-04-09T03:53:50.386Z,28.15
2023-04-09T03:56:16.698Z,29.83
2023-04-09T03:58:43.026Z,29.05
2023-04-09T04:01:09.431Z,27.48
2023-04-09T04:03:36.010Z,29.63
2023-04-09T04:06:03.446Z,29.33
2023-04-09T04:08:30.071Z,28.15
2023-04-09T04:10:56.539Z,29.70
2023-04-09T04:13:22.983Z,29.67
2023-04-09T04:15:49.315Z,29.10
2023-04-09T04:18:15.671Z,28.90
2023-04-09T04:20:42.013Z,28.75
2023-04-09T04:23:08.384Z,29.08
2023-04-09T04:25:34.741Z,28.83
2023-04-09T04:28:01.057Z,29.30
2023-04-09T04:30:27.424Z,30.20
2023-04-09T04:32:53.884Z,30.48
2023-04-09T04:35:21.613Z,28.98
2023-04-09T04:37:50.935Z,30.23
2023-04-09T04:40:17.664Z,29.83
2023-04-09T04:42:44.262Z,30.38
2023-04-09T04:45:10.783Z,29.00
2023-04-09T04:47:37.148Z,27.00
2023-04-09T04:50:03.771Z,30.17
2023-04-09T04:52:30.169Z,29.52
2023-04-09T04:54:56.547Z,29.92
2023-04-09T04:57:22.950Z,28.67
2023-04-09T04:59:49.273Z,28.80
2023-04-09T05:02:15.800Z,28.77
2023-04-09T05:04:42.408Z,30.63
2023-04-09T05:07:08.729Z,29.27
2023-04-09T05:09:35.387Z,30.67
2023-04-09T05:12:02.488Z,28.33
2023-04-09T05:14:28.907Z,29.15
2023-04-09T05:16:55.292Z,30.08
2023-04-09T05:19:21.704Z,29.15
2023-04-09T05:21:48.022Z,29.48
2023-04-09T05:24:14.446Z,29.83
2023-04-09T05:26:40.927Z,28.75
2023-04-09T05:29:07.273Z,28.20
2023-04-09T05:31:35.183Z,30.25
2023-04-09T05:34:01.571Z,29.40
2023-04-09T05:36:27.895Z,30.00
2023-04-09T05:38:54.600Z,28.80
2023-04-09T05:41:21.242Z,27.92
2023-04-09T05:43:47.594Z,29.90
2023-04-09T05:46:14.185Z,28.70
2023-04-09T05:48:41.199Z,27.60
2023-04-09T05:51:07.877Z,27.38
2023-04-09T05:53:34.229Z,29.67
2023-04-09T05:56:00.807Z,26.60
2023-04-09T05:58:29.544Z,29.58
2023-04-09T06:00:56.103Z,28.58
2023-04-09T06:03:22.499Z,28.95
2023-04-09T06:05:49.122Z,28.95
2023-04-09T06:08:15.668Z,28.92
2023-04-09T06:10:42.172Z,29.15
2023-04-09T06:13:10.180Z,29.83
2023-04-09T06:15:38.707Z,28.38
2023-04-09T06:18:05.090Z,28.75
2023-04-09T06:20:31.535Z,29.27
2023-04-09T06:22:57.917Z,26.83
2023-04-09T06:25:24.383Z,28.05
2023-04-09T06:27:50.910Z,28.92
2023-04-09T06:30:17.249Z,28.80
2023-04-09T06:32:53.822Z,29.45
2023-04-09T06:35:21.569Z,28.05
2023-04-09T06:37:47.879Z,29.92
2023-04-09T06:40:14.721Z,27.98
2023-04-09T06:42:41.174Z,27.92
2023-04-09T06:45:08.609Z,26.73
2023-04-09T06:47:38.012Z,27.60
2023-04-09T06:50:05.001Z,27.15
2023-04-09T06:52:31.465Z,26.63
2023-04-09T06:54:57.842Z,26.08
2023-04-09T06:57:24.207Z,26.48
2023-04-09T06:59:50.599Z,27.63
2023-04-09T07:02:17.284Z,27.13
2023-04-09T07:04:43.858Z,27.25
2023-04-09T07:07:10.571Z,27.27
2023-04-09T07:09:36.981Z,26.05
2023-04-09T07:12:03.494Z,25.63
2023-04-09T07:14:29.958Z,25.17
2023-04-09T07:16:56.288Z,26.55
2023-04-09T07:19:22.804Z,25.48
2023-04-09T07:21:49.224Z,25.20
2023-04-09T07:24:15.792Z,24.35
2023-04-09T07:26:42.660Z,25.17
2023-04-09T07:29:09.160Z,25.83
2023-04-09T07:31:36.201Z,24.45
2023-04-09T07:34:02.675Z,24.52
2023-04-09T07:36:29.156Z,23.95
2023-04-09T07:38:55.618Z,22.98
2023-04-09T07:41:22.159Z,22.80
2023-04-09T07:43:48.678Z,22.92
2023-04-09T07:46:24.445Z,21.75
2023-04-09T07:51:19.393Z,20.98
2023-04-09T07:53:45.816Z,22.05
2023-04-09T07:56:12.347Z,21.95
2023-04-09T07:58:38.693Z,22.35
2023-04-09T08:01:05.218Z,23.33
2023-04-09T08:03:32.156Z,20.95
2023-04-09T08:05:58.704Z,22.17
2023-04-09T08:08:25.348Z,22.08
2023-04-09T08:10:52.085Z,21.02
2023-04-09T08:13:18.530Z,21.38
2023-04-09T08:15:45.046Z,20.02
2023-04-09T08:18:11.482Z,19.90
2023-04-09T08:20:44.823Z,20.17
2023-04-09T08:23:12.030Z,17.98
2023-04-09T08:25:38.409Z,17.63
2023-04-09T08:28:05.554Z,17.58
2023-04-09T08:30:34.089Z,18.27
2023-04-09T08:33:01.538Z,19.45
2023-04-09T08:35:29.913Z,18.20
2023-04-09T08:37:56.884Z,17.17
2023-04-09T08:40:23.519Z,16.70
2023-04-09T08:42:55.800Z,17.80
2023-04-09T08:45:22.577Z,17.40
2023-04-09T08:47:51.322Z,16.92
2023-04-09T08:50:17.841Z,17.00
2023-04-09T08:52:48.003Z,17.65
2023-04-09T08:55:14.604Z,17.27
2023-04-09T08:57:41.993Z,16.65
2023-04-09T09:00:09.294Z,16.00
2023-04-09T09:02:36.356Z,17.55
2023-04-09T09:05:03.016Z,17.45
2023-04-09T09:07:30.254Z,17.20
2023-04-09T09:09:59.031Z,16.88
2023-04-09T09:12:34.803Z,16.50
2023-04-09T09:15:01.802Z,16.23
2023-04-09T09:17:28.418Z,17.17
2023-04-09T09:19:55.121Z,16.42
2023-04-09T09:22:21.654Z,17.00
2023-04-09T09:24:50.692Z,16.75
2023-04-09T09:27:37.151Z,16.45
2023-04-09T09:32:32.202Z,15.32
2023-04-09T09:35:08.063Z,15.70
2023-04-09T09:37:34.573Z,15.20
2023-04-09T09:40:01.252Z,15.80
2023-04-09T09:42:28.000Z,16.27
2023-04-09T09:44:55.247Z,15.32
2023-04-09T09:47:22.819Z,15.77
2023-04-09T09:49:50.340Z,15.02
2023-04-09T09:52:24.586Z,15.77
2023-04-09T09:54:53.326Z,14.85
2023-04-09T09:57:22.226Z,14.32
2023-04-09T09:59:55.990Z,14.95
2023-04-09T10:02:30.910Z,14.93
2023-04-09T10:05:00.905Z,15.18
2023-04-09T10:07:28.497Z,14.75
2023-04-09T10:09:56.846Z,14.82
2023-04-09T10:12:25.084Z,14.77
2023-04-09T10:14:53.043Z,14.18
2023-04-09T10:17:20.036Z,15.20
2023-04-09T10:20:02.056Z,15.20
2023-04-09T10:22:32.042Z,14.63
2023-04-09T10:24:59.805Z,14.10
2023-04-09T10:27:29.911Z,14.57
2023-04-09T10:29:56.488Z,14.32
2023-04-09T10:32:26.695Z,12.77
2023-04-09T10:34:57.256Z,13.70
2023-04-09T10:37:25.827Z,11.73
2023-04-09T10:39:52.827Z,12.25
2023-04-09T10:42:24.841Z,11.70
2023-04-09T10:45:04.535Z,11.63
2023-04-09T10:47:36.301Z,12.55
2023-04-09T10:50:21.152Z,13.85
2023-04-09T10:52:52.806Z,11.65
2023-04-09T10:55:50.331Z,11.02
2023-04-09T10:58:17.341Z,11.85
2023-04-09T11:00:48.640Z,13.02
2023-04-09T11:03:24.356Z,11.02
2023-04-09T11:08:33.696Z,11.60
2023-04-09T11:11:01.925Z,11.23
2023-04-09T11:13:30.212Z,12.65
2023-04-09T11:15:57.800Z,12.50
2023-04-09T11:18:26.734Z,12.02
2023-04-09T11:20:57.494Z,12.52
2023-04-09T11:23:24.996Z,12.10
2023-04-09T11:25:53.008Z,11.98
2023-04-09T11:28:20.563Z,11.75
2023-04-09T11:30:47.388Z,12.73
2023-04-09T11:33:14.342Z,11.75
2023-04-09T11:35:40.799Z,10.80
2023-04-09T11:38:08.938Z,10.13
2023-04-09T11:40:36.189Z,10.32
2023-04-09T11:43:03.167Z,10.23
2023-04-09T11:45:32.034Z,9.90
2023-04-09T11:47:59.260Z,10.30
2023-04-09T11:50:26.246Z,10.52
2023-04-09T11:52:52.705Z,9.98
2023-04-09T11:55:27.851Z,10.30
2023-04-09T11:57:57.825Z,10.40
2023-04-09T12:00:24.715Z,10.88
2023-04-09T12:03:02.864Z,10.95
2023-04-09T12:05:31.976Z,10.15
2023-04-09T12:08:02.201Z,10.82
2023-04-09T12:10:29.988Z,10.55
2023-04-09T12:13:06.647Z,10.07
2023-04-09T12:15:35.005Z,10.18
2023-04-09T12:18:02.138Z,9.68
2023-04-09T12:20:31.586Z,10.90
2023-04-09T12:23:00.294Z,10.30
2023-04-09T12:25:27.726Z,9.55
2023-04-09T12:27:56.457Z,9.70
2023-04-09T12:30:23.672Z,10.10
2023-04-09T12:32:50.630Z,10.50
2023-04-09T12:35:17.038Z,11.02
2023-04-09T12:37:44.280Z,10.35
2023-04-09T12:40:13.903Z,11.23
2023-04-09T12:42:41.676Z,9.88
2023-04-09T12:45:10.259Z,10.43
2023-04-09T12:47:37.061Z,9.93
2023-04-09T12:50:04.640Z,10.63
2023-04-09T12:52:31.178Z,10.55
2023-04-09T12:54:57.821Z,10.82
2023-04-09T12:57:24.456Z,10.25
2023-04-09T12:59:50.917Z,9.45
2023-04-09T13:02:17.608Z,9.43
2023-04-09T13:04:44.579Z,9.40
2023-04-09T13:07:12.899Z,9.45
2023-04-09T13:09:39.324Z,9.80
2023-04-09T13:12:06.090Z,9.68
2023-04-09T13:14:32.582Z,9.25
2023-04-09T13:16:59.257Z,9.68
2023-04-09T13:19:25.982Z,10.15
2023-04-09T13:21:52.694Z,10.07
2023-04-09T13:24:19.131Z,10.70
2023-04-09T13:26:45.575Z,9.10
2023-04-09T13:29:12.113Z,9.50
2023-04-09T13:31:38.508Z,9.27
2023-04-09T13:34:06.423Z,10.25
2023-04-09T13:36:33.074Z,9.43
2023-04-09T13:39:04.335Z,9.13
2023-04-09T13:41:32.677Z,10.52
2023-04-09T13:44:00.201Z,10.35
2023-04-09T13:46:27.823Z,9.73
2023-04-09T13:48:55.203Z,9.50
2023-04-09T13:51:27.141Z,10.18
2023-04-09T13:53:53.537Z,8.55
2023-04-09T13:56:20.556Z,8.23
2023-04-09T13:58:47.441Z,9.75
2023-04-09T14:01:14.510Z,10.00
2023-04-09T14:03:40.887Z,10.05
2023-04-09T14:06:10.543Z,10.05
2023-04-09T14:08:37.186Z,9.13
2023-04-09T14:11:03.743Z,9.20
2023-04-09T14:13:30.404Z,9.20
2023-04-09T14:15:59.159Z,8.82
2023-04-09T14:18:26.795Z,10.05
2023-04-09T14:20:53.222Z,9.35
2023-04-09T14:23:19.707Z,8.80
2023-04-09T14:25:46.045Z,8.93
2023-04-09T14:28:12.462Z,9.38
2023-04-09T14:30:39.013Z,8.27
2023-04-09T14:33:05.413Z,7.97
2023-04-09T14:35:31.896Z,8.32
2023-04-09T14:37:58.412Z,7.95
2023-04-09T14:40:24.827Z,7.95
2023-04-09T14:42:51.252Z,7.97
2023-04-09T14:45:17.934Z,8.30
2023-04-09T14:47:44.343Z,8.07
2023-04-09T14:50:12.870Z,8.18
2023-04-09T14:52:39.470Z,8.10
2023-04-09T14:55:11.925Z,8.02
2023-04-09T14:57:42.062Z,7.78
2023-04-09T15:00:10.356Z,7.35
2023-04-09T15:02:37.156Z,7.78
2023-04-09T15:05:04.561Z,8.35
2023-04-09T15:07:31.502Z,7.93
2023-04-09T15:09:59.798Z,7.45
2023-04-09T15:12:27.834Z,7.80
2023-04-09T15:14:56.524Z,7.28
2023-04-09T15:17:23.693Z,7.70
2023-04-09T15:19:50.721Z,8.15
2023-04-09T15:22:17.136Z,7.75
2023-04-09T15:24:43.684Z,8.02
2023-04-09T15:27:10.304Z,8.23
2023-04-09T15:29:36.755Z,10.25
2023-04-09T15:32:03.347Z,8.18
2023-04-09T15:34:29.909Z,8.02
2023-04-09T15:36:57.182Z,7.93
2023-04-09T15:39:24.741Z,7.65
2023-04-09T15:41:51.181Z,7.53
2023-04-09T15:44:17.601Z,11.38
2023-04-09T15:46:44.129Z,8.77
2023-04-09T15:49:10.793Z,14.00
2023-04-09T15:51:37.228Z,8.98
2023-04-09T15:54:03.733Z,9.20
2023-04-09T15:56:30.118Z,6.88
2023-04-09T15:58:56.507Z,7.50
2023-04-09T16:01:22.974Z,6.90
2023-04-09T16:03:52.133Z,6.55
2023-04-09T16:06:18.728Z,6.68
2023-04-09T16:08:45.432Z,6.82
2023-04-09T16:11:11.855Z,7.65
2023-04-09T16:13:38.283Z,7.78
2023-04-09T16:16:06.732Z,7.78
2023-04-09T16:18:34.512Z,7.70
2023-04-09T16:21:01.091Z,7.72
2023-04-09T16:23:29.736Z,8.00
2023-04-09T16:25:57.022Z,8.73
2023-04-09T16:28:23.452Z,8.77
2023-04-09T16:30:50.518Z,7.90
2023-04-09T16:33:16.859Z,7.95
2023-04-09T16:35:43.621Z,7.78
2023-04-09T16:38:10.440Z,7.78
2023-04-09T16:40:37.112Z,7.72
2023-04-09T16:43:03.784Z,8.60
2023-04-09T16:45:30.424Z,8.27
2023-04-09T16:47:56.988Z,7.90
2023-04-09T16:50:24.622Z,8.13
2023-04-09T16:52:51.267Z,8.60
2023-04-09T16:55:17.712Z,9.00
2023-04-09T16:57:44.436Z,8.45
2023-04-09T17:00:12.787Z,8.68
2023-04-09T17:02:39.563Z,8.55
2023-04-09T17:05:06.525Z,8.65
2023-04-09T17:07:33.158Z,9.65
2023-04-09T17:09:59.543Z,10.55
2023-04-09T17:12:26.859Z,9.40
2023-04-09T17:14:53.641Z,8.98
2023-04-09T17:17:20.213Z,8.93
2023-04-09T17:19:46.874Z,8.85
2023-04-09T17:22:13.917Z,8.32
2023-04-09T17:24:40.358Z,8.13
2023-04-09T17:27:07.442Z,8.35
2023-04-09T17:29:34.265Z,8.63
2023-04-09T17:32:00.668Z,8.57
2023-04-09T17:34:27.280Z,7.82
2023-04-09T17:36:57.392Z,8.57
2023-04-09T17:39:27.052Z,8.32
2023-04-09T17:41:56.255Z,8.45
2023-04-09T17:44:24.835Z,8.82
2023-04-09T17:46:51.896Z,9.32
2023-04-09T17:49:18.507Z,9.77
2023-04-09T17:51:44.986Z,11.18
2023-04-09T17:54:11.728Z,11.13
2023-04-09T17:56:39.051Z,12.90
2023-04-09T17:59:06.443Z,14.57
2023-04-09T18:01:33.061Z,14.77
2023-04-09T18:04:01.065Z,13.95
2023-04-09T18:06:28.049Z,14.68
2023-04-09T18:08:54.703Z,15.88
2023-04-09T18:11:21.152Z,17.20
2023-04-09T18:13:47.514Z,19.80
2023-04-09T18:16:14.215Z,22.50
2023-04-09T18:18:41.164Z,24.15
2023-04-09T18:21:07.608Z,23.80
2023-04-09T18:23:34.349Z,24.83
2023-04-09T18:26:01.009Z,23.55
2023-04-09T18:28:28.018Z,22.05
2023-04-09T18:30:54.706Z,22.00
2023-04-09T18:33:21.527Z,21.30
2023-04-09T18:35:48.123Z,20.40
2023-04-09T18:38:14.664Z,21.67
2023-04-09T18:40:42.737Z,20.20
2023-04-09T18:43:12.282Z,19.10
2023-04-09T18:45:42.520Z,19.08
2023-04-09T18:48:09.028Z,20.00
2023-04-09T18:50:35.677Z,22.50
2023-04-09T18:53:03.579Z,23.30
2023-04-09T18:55:30.375Z,21.35
2023-04-09T18:57:57.453Z,22.20
2023-04-09T19:00:24.328Z,21.33
2023-04-09T19:02:51.152Z,20.13
2023-04-09T19:05:18.034Z,21.90
2023-04-09T19:07:44.474Z,21.23
2023-04-09T19:10:13.182Z,21.05
2023-04-09T19:12:39.810Z,20.35
2023-04-09T19:15:06.766Z,20.70
2023-04-09T19:17:33.943Z,21.67
2023-04-09T19:20:01.051Z,20.75
2023-04-09T19:22:28.054Z,22.98
2023-04-09T19:24:54.532Z,21.55
2023-04-09T19:27:20.979Z,22.60
2023-04-09T19:29:47.290Z,23.48
2023-04-09T19:32:13.800Z,24.67
2023-04-09T19:34:40.302Z,24.52
2023-04-09T19:37:07.364Z,26.60
2023-04-09T19:39:33.750Z,27.15
2023-04-09T19:42:00.171Z,28.92
2023-04-09T19:44:26.648Z,31.67
2023-04-09T19:46:53.127Z,31.55
2023-04-09T19:49:19.509Z,33.65
2023-04-09T19:51:45.806Z,34.70
2023-04-09T19:54:12.155Z,37.85
2023-04-09T19:56:38.493Z,37.38
2023-04-09T19:59:04.862Z,38.08
2023-04-09T20:01:31.435Z,38.20
2023-04-09T20:03:57.978Z,37.38
2023-04-09T20:06:24.705Z,36.47
2023-04-09T20:08:51.324Z,36.15
2023-04-09T20:11:18.610Z,35.67
2023-04-09T20:13:47.060Z,35.38
2023-04-09T20:16:16.465Z,36.33
2023-04-09T20:18:42.836Z,38.53
2023-04-09T20:21:09.305Z,37.83
2023-04-09T20:23:35.666Z,38.50
2023-04-09T20:26:02.626Z,38.58
2023-04-09T20:28:29.707Z,38.28
2023-04-09T20:30:56.523Z,38.70
2023-04-09T20:33:22.885Z,35.63
2023-04-09T20:35:50.373Z,35.08
2023-04-09T20:38:20.360Z,33.72
2023-04-09T20:40:46.866Z,33.47
2023-04-09T20:43:13.512Z,32.58
2023-04-09T20:45:39.937Z,28.55
2023-04-09T20:48:06.599Z,28.50
2023-04-09T20:50:33.038Z,30.10
2023-04-09T20:52:59.368Z,27.45
2023-04-09T20:55:26.125Z,27.45
2023-04-09T20:57:55.510Z,27.60
2023-04-09T21:00:22.567Z,27.10
2023-04-09T21:02:49.145Z,26.60
2023-04-09T21:05:22.813Z,26.20
2023-04-09T21:07:50.669Z,25.85
2023-04-09T21:10:17.185Z,26.77
2023-04-09T21:12:43.602Z,25.77
2023-04-09T21:15:10.992Z,26.45
2023-04-09T21:17:37.427Z,27.67
2023-04-09T21:20:04.501Z,26.92
2023-04-09T21:22:31.291Z,26.80
2023-04-09T21:24:57.817Z,26.40
2023-04-09T21:27:24.214Z,26.52
2023-04-09T21:29:50.712Z,26.85
2023-04-09T21:32:17.584Z,27.30
2023-04-09T21:34:43.938Z,27.80
2023-04-09T21:37:10.447Z,27.35
2023-04-09T21:39:36.970Z,27.50
2023-04-09T21:42:03.308Z,29.15
2023-04-09T21:44:29.783Z,30.08
2023-04-09T21:46:56.337Z,29.80
2023-04-09T21:49:22.854Z,30.08
2023-04-09T21:51:49.261Z,30.40
2023-04-09T21:54:15.800Z,29.63
2023-04-09T21:56:42.168Z,29.52
2023-04-09T21:59:08.533Z,30.58
2023-04-09T22:01:35.333Z,30.42
2023-04-09T22:04:02.366Z,31.88
2023-04-09T22:06:29.488Z,31.45
2023-04-09T22:08:57.809Z,30.65
2023-04-09T22:11:27.557Z,29.85
2023-04-09T22:13:57.919Z,31.70
2023-04-09T22:16:25.880Z,28.88
2023-04-09T22:18:53.923Z,30.15
2023-04-09T22:21:20.699Z,28.60
2023-04-09T22:23:47.019Z,28.15
2023-04-09T22:26:13.540Z,28.10
2023-04-09T22:28:40.107Z,27.38
2023-04-09T22:31:06.667Z,28.67
2023-04-09T22:33:33.001Z,28.02
2023-04-09T22:35:59.801Z,29.40
2023-04-09T22:38:26.444Z,27.42
2023-04-09T22:40:52.942Z,26.55
2023-04-09T22:43:19.634Z,27.25
2023-04-09T22:45:54.059Z,26.35
2023-04-09T22:48:21.779Z,25.95
2023-04-09T22:50:49.346Z,25.40
2023-04-09T22:53:18.788Z,25.23
2023-04-09T22:55:47.367Z,25.02
2023-04-09T22:58:13.719Z,24.95
2023-04-09T23:00:40.486Z,24.10
2023-04-09T23:03:07.037Z,23.67
2023-04-09T23:05:33.701Z,23.50
2023-04-09T23:08:00.210Z,22.63
2023-04-09T23:10:26.713Z,23.27
2023-04-09T23:12:53.166Z,23.90
2023-04-09T23:15:19.657Z,23.63
2023-04-09T23:17:46.121Z,24.88
2023-04-09T23:20:14.867Z,24.55
2023-04-09T23:22:41.917Z,25.88
2023-04-09T23:25:08.736Z,25.50
2023-04-09T23:27:35.156Z,26.70
2023-04-09T23:30:01.549Z,26.45
2023-04-09T23:32:27.956Z,26.60
2023-04-09T23:34:54.348Z,27.13
2023-04-09T23:37:20.802Z,26.33
2023-04-09T23:39:48.160Z,26.52
2023-04-09T23:42:14.573Z,26.77
2023-04-09T23:44:41.005Z,28.20
2023-04-09T23:47:07.564Z,27.63
2023-04-09T23:49:33.891Z,27.08
2023-04-09T23:52:00.317Z,26.40
2023-04-09T23:54:26.960Z,27.05
2023-04-09T23:56:53.342Z,28.20
2023-04-09T23:59:19.713Z,28.55
